createdAt,value
2022-12-15T00:00:51.483Z,26.25
2022-12-15T00:06:11.619Z,29.88
2022-12-15T00:11:31.843Z,26.50
2022-12-15T00:16:52.188Z,25.83
2022-12-15T00:22:12.432Z,28.50
2022-12-15T00:27:32.721Z,26.98
2022-12-15T00:32:53.432Z,25.88
2022-12-15T00:38:13.685Z,26.55
2022-12-15T00:43:15.249Z,26.40
2022-12-15T00:48:16.819Z,26.55
2022-12-15T00:53:38.897Z,25.65
2022-12-15T00:58:59.115Z,25.83
2022-12-15T01:04:19.435Z,24.15
2022-12-15T01:09:39.569Z,25.08
2022-12-15T01:14:59.904Z,27.08
2022-12-15T01:20:18.216Z,24.08
2022-12-15T01:25:22.054Z,23.83
2022-12-15T01:30:25.862Z,24.52
2022-12-15T01:35:27.802Z,25.25
2022-12-15T01:40:47.291Z,25.67
2022-12-15T01:45:53.362Z,25.38
2022-12-15T01:50:59.952Z,23.73
2022-12-15T01:56:05.119Z,25.90
2022-12-15T02:01:07.392Z,23.90
2022-12-15T02:06:11.430Z,26.45
2022-12-15T02:11:31.224Z,23.65
2022-12-15T02:16:42.100Z,24.33
2022-12-15T02:22:08.157Z,22.92
2022-12-15T02:27:22.922Z,24.33
2022-12-15T02:32:35.005Z,23.25
2022-12-15T02:37:39.383Z,22.55
2022-12-15T02:42:47.992Z,23.70
2022-12-15T02:48:06.794Z,23.60
2022-12-15T02:53:34.153Z,24.77
2022-12-15T02:58:54.678Z,25.77
2022-12-15T03:03:57.958Z,23.83
2022-12-15T03:08:59.628Z,24.75
2022-12-15T03:14:01.266Z,24.10
2022-12-15T03:19:02.831Z,24.20
2022-12-15T03:24:04.495Z,23.48
2022-12-15T03:29:06.074Z,24.15
2022-12-15T03:34:07.652Z,24.30
2022-12-15T03:39:09.250Z,22.30
2022-12-15T03:44:11.201Z,23.75
2022-12-15T03:49:12.869Z,24.73
2022-12-15T03:54:14.928Z,24.08
2022-12-15T03:59:16.495Z,23.25
2022-12-15T04:04:18.054Z,23.88
2022-12-15T04:09:19.613Z,25.20
2022-12-15T04:14:21.157Z,23.38
2022-12-15T04:19:41.862Z,23.45
2022-12-15T04:25:02.162Z,22.45
2022-12-15T04:30:22.852Z,23.40
2022-12-15T04:35:43.118Z,24.77
2022-12-15T04:41:09.933Z,23.75
2022-12-15T04:46:30.049Z,23.30
2022-12-15T04:51:52.381Z,23.83
2022-12-15T04:57:12.556Z,24.65
2022-12-15T05:02:32.909Z,22.83
2022-12-15T05:07:53.020Z,24.55
2022-12-15T05:13:13.245Z,21.58
2022-12-15T05:18:35.864Z,24.13
2022-12-15T05:23:56.075Z,23.38
2022-12-15T05:29:16.282Z,24.65
2022-12-15T05:34:29.336Z,24.33
2022-12-15T05:39:31.178Z,24.17
2022-12-15T05:44:32.923Z,24.88
2022-12-15T05:49:35.757Z,24.67
2022-12-15T05:54:37.459Z,25.27
2022-12-15T05:59:39.183Z,26.35
2022-12-15T06:04:43.476Z,23.95
2022-12-15T06:09:45.425Z,25.83
2022-12-15T06:14:47.098Z,27.10
2022-12-15T06:19:51.627Z,26.98
2022-12-15T06:24:53.183Z,25.13
2022-12-15T06:29:54.733Z,23.00
2022-12-15T06:34:56.281Z,25.35
2022-12-15T06:39:58.083Z,29.15
2022-12-15T06:44:59.722Z,25.95
2022-12-15T06:50:02.122Z,29.85
2022-12-15T06:55:03.968Z,27.40
2022-12-15T07:00:06.491Z,26.73
2022-12-15T07:05:09.307Z,24.27
2022-12-15T07:10:11.429Z,26.38
2022-12-15T07:15:13.366Z,25.98
2022-12-15T07:20:15.317Z,26.42
2022-12-15T07:25:16.962Z,27.40
2022-12-15T07:30:18.780Z,25.70
2022-12-15T07:35:20.330Z,27.58
2022-12-15T07:40:22.049Z,26.70
2022-12-15T07:45:23.744Z,27.00
2022-12-15T07:50:25.631Z,26.42
2022-12-15T07:55:50.203Z,26.17
2022-12-15T08:00:49.338Z,26.23
2022-12-15T08:05:50.944Z,23.77
2022-12-15T08:10:52.784Z,26.40
2022-12-15T08:15:55.083Z,26.52
2022-12-15T08:21:02.659Z,26.02
2022-12-15T08:26:07.737Z,27.63
2022-12-15T08:31:15.242Z,27.23
2022-12-15T08:36:18.973Z,27.63
2022-12-15T08:41:23.649Z,27.90
2022-12-15T08:46:29.566Z,28.10
2022-12-15T08:51:32.831Z,28.25
2022-12-15T08:56:36.082Z,26.83
2022-12-15T09:01:40.244Z,28.83
2022-12-15T09:06:42.081Z,26.67
2022-12-15T09:11:43.636Z,26.98
2022-12-15T09:16:45.379Z,29.60
2022-12-15T09:21:48.156Z,27.60
2022-12-15T09:26:50.101Z,27.17
2022-12-15T09:31:51.713Z,28.25
2022-12-15T09:36:56.818Z,28.25
2022-12-15T09:42:00.628Z,27.02
2022-12-15T09:47:30.363Z,27.95
2022-12-15T09:52:38.708Z,25.75
2022-12-15T09:57:50.024Z,26.85
2022-12-15T10:03:16.197Z,27.17
2022-12-15T10:08:20.633Z,27.02
2022-12-15T10:13:38.527Z,26.58
2022-12-15T10:19:32.769Z,28.63
2022-12-15T10:30:15.401Z,26.33
2022-12-15T10:35:21.961Z,26.08
2022-12-15T10:40:43.147Z,26.05
2022-12-15T10:45:44.754Z,27.60
2022-12-15T10:50:47.152Z,27.40
2022-12-15T10:56:00.376Z,25.70
2022-12-15T11:01:08.191Z,26.77
2022-12-15T11:06:19.718Z,27.52
2022-12-15T11:11:48.191Z,26.23
2022-12-15T11:16:58.108Z,29.73
2022-12-15T11:22:08.394Z,26.95
2022-12-15T11:27:20.925Z,26.48
2022-12-15T11:32:33.418Z,26.42
2022-12-15T11:37:39.395Z,27.58
2022-12-15T11:42:53.226Z,26.15
2022-12-15T11:48:01.210Z,25.55
2022-12-15T11:53:13.646Z,24.30
2022-12-15T11:58:37.076Z,25.27
2022-12-15T12:03:54.816Z,27.00
2022-12-15T12:09:04.675Z,25.83
2022-12-15T12:14:29.548Z,24.63
2022-12-15T12:19:37.850Z,27.02
2022-12-15T12:24:44.800Z,24.73
2022-12-15T12:29:57.560Z,25.92
2022-12-15T12:35:31.369Z,25.87
2022-12-15T12:40:40.800Z,23.15
2022-12-15T12:45:50.986Z,27.67
2022-12-15T12:51:09.485Z,28.95
2022-12-15T12:56:31.149Z,23.70
2022-12-15T13:01:34.785Z,26.20
2022-12-15T13:06:36.456Z,25.75
2022-12-15T13:11:53.029Z,24.45
2022-12-15T13:22:36.901Z,27.00
2022-12-15T13:27:40.723Z,26.08
2022-12-15T13:32:51.428Z,25.95
2022-12-15T13:37:56.281Z,27.60
2022-12-15T13:43:04.414Z,24.58
2022-12-15T13:48:29.900Z,24.45
2022-12-15T13:53:43.338Z,24.88
2022-12-15T13:58:50.796Z,23.92
2022-12-15T14:04:12.730Z,24.98
2022-12-15T14:09:16.944Z,26.73
2022-12-15T14:14:22.677Z,23.38
2022-12-15T14:19:24.511Z,23.30
2022-12-15T14:24:40.846Z,24.40
2022-12-15T14:29:42.624Z,24.27
2022-12-15T14:34:45.039Z,24.80
2022-12-15T14:39:58.230Z,25.05
2022-12-15T14:44:59.900Z,24.83
2022-12-15T14:50:03.491Z,24.13
2022-12-15T14:55:37.911Z,23.85
2022-12-15T15:00:50.670Z,24.52
2022-12-15T15:05:58.013Z,23.00
2022-12-15T15:11:34.136Z,24.95
2022-12-15T15:16:35.860Z,24.90
2022-12-15T15:21:37.715Z,25.15
2022-12-15T15:26:43.245Z,24.15
2022-12-15T15:31:45.092Z,25.40
2022-12-15T15:36:47.348Z,24.70
2022-12-15T15:41:48.959Z,25.40
2022-12-15T15:46:52.002Z,25.35
2022-12-15T15:51:56.027Z,28.50
2022-12-15T15:56:57.577Z,26.52
2022-12-15T16:01:59.821Z,27.58
2022-12-15T16:07:01.866Z,28.10
2022-12-15T16:12:03.722Z,28.13
2022-12-15T16:17:09.249Z,28.27
2022-12-15T16:22:18.221Z,30.92
2022-12-15T16:27:19.781Z,29.75
2022-12-15T16:32:21.531Z,29.75
2022-12-15T16:37:27.416Z,27.83
2022-12-15T16:42:28.938Z,27.38
2022-12-15T16:47:30.464Z,25.33
2022-12-15T16:52:32.286Z,28.48
2022-12-15T16:57:36.219Z,28.85
2022-12-15T17:02:38.733Z,27.63
2022-12-15T17:07:41.030Z,30.27
2022-12-15T17:12:43.458Z,29.95
2022-12-15T17:17:45.061Z,30.52
2022-12-15T17:22:50.268Z,27.52
2022-12-15T17:27:56.077Z,27.33
2022-12-15T17:32:57.852Z,28.67
2022-12-15T17:37:59.428Z,27.35
2022-12-15T17:43:00.996Z,27.60
2022-12-15T17:48:02.564Z,28.67
2022-12-15T17:53:05.698Z,27.48
2022-12-15T17:58:20.927Z,25.38
2022-12-15T18:03:26.307Z,26.10
2022-12-15T18:08:28.339Z,24.40
2022-12-15T18:13:35.259Z,26.55
2022-12-15T18:18:37.230Z,26.58
2022-12-15T18:23:38.770Z,26.23
2022-12-15T18:28:40.854Z,27.80
2022-12-15T18:33:44.447Z,25.95
2022-12-15T18:38:46.051Z,25.27
2022-12-15T18:43:47.808Z,24.45
2022-12-15T18:48:49.348Z,23.75
2022-12-15T18:53:51.378Z,24.42
2022-12-15T18:58:52.967Z,26.83
2022-12-15T19:03:54.496Z,25.02
2022-12-15T19:08:56.132Z,24.33
2022-12-15T19:13:59.315Z,24.13
2022-12-15T19:19:19.460Z,25.50
2022-12-15T19:24:45.973Z,25.48
2022-12-15T19:29:48.248Z,27.33
2022-12-15T19:34:50.232Z,25.65
2022-12-15T19:39:53.115Z,24.48
2022-12-15T19:44:54.637Z,24.00
2022-12-15T19:49:56.245Z,24.73
2022-12-15T19:54:57.874Z,24.27
2022-12-15T19:59:59.402Z,24.83
2022-12-15T20:05:03.316Z,24.88
2022-12-15T20:10:22.039Z,24.05
2022-12-15T20:15:26.356Z,23.75
2022-12-15T20:20:29.201Z,21.23
2022-12-15T20:25:34.501Z,24.73
2022-12-15T20:30:36.039Z,23.42
2022-12-15T20:35:37.876Z,22.75
2022-12-15T20:40:39.510Z,22.38
2022-12-15T20:45:41.575Z,22.15
2022-12-15T20:50:48.184Z,22.60
2022-12-15T20:55:53.375Z,23.65
2022-12-15T21:00:54.990Z,21.77
2022-12-15T21:05:58.653Z,21.95
2022-12-15T21:11:20.551Z,20.52
2022-12-15T21:16:26.055Z,19.08
2022-12-15T21:21:31.402Z,18.83
2022-12-15T21:26:33.160Z,19.00
2022-12-15T21:31:34.731Z,19.63
2022-12-15T21:36:37.722Z,18.98
2022-12-15T21:41:42.886Z,20.58
2022-12-15T21:46:44.468Z,18.40
2022-12-15T21:51:56.810Z,19.92
2022-12-15T21:57:02.797Z,20.30
2022-12-15T22:02:26.154Z,20.20
2022-12-15T22:07:27.786Z,21.17
2022-12-15T22:12:29.351Z,20.48
2022-12-15T22:17:32.313Z,21.33
2022-12-15T22:22:33.830Z,21.05
2022-12-15T22:27:35.372Z,18.88
2022-12-15T22:32:36.920Z,18.60
2022-12-15T22:37:38.449Z,20.83
2022-12-15T22:42:44.104Z,17.40
2022-12-15T22:47:49.572Z,21.17
2022-12-15T22:58:23.711Z,20.00
2022-12-15T23:03:29.463Z,19.50
2022-12-15T23:08:33.997Z,20.67
2022-12-15T23:13:35.661Z,19.67
2022-12-15T23:18:37.306Z,19.70
2022-12-15T23:23:38.869Z,19.85
2022-12-15T23:28:41.193Z,20.42
2022-12-15T23:33:42.719Z,18.02
2022-12-15T23:38:44.727Z,18.30
2022-12-15T23:43:46.459Z,20.50
2022-12-15T23:48:48.028Z,20.55
2022-12-15T23:53:49.681Z,21.40
2022-12-15T23:58:59.713Z,21.55
